This is the latest recevied weather packets stored in our database for station/object TA2LKM-11. If no packets are shown the sender has not sent any weather packets the latest 10 day(s).
| Time | Temp. | Humidity | Pressure | Rain* | Wind** | Luminosity | Snow |
|---|---|---|---|---|---|---|---|
| 1787969772 | 33.33° C | 100% | 764.9 hPa | - | - | - | - |
| 1787968872 | 33.33° C | 100% | 764.9 hPa | - | - | - | - |
| 1787967971 | 33.33° C | 100% | 764.9 hPa | - | - | - | - |
| 1787967070 | 22.22° C | 56% | 1017.4 hPa | - | - | - | - |
| 1787966170 | 22.22° C | 56% | 1017.4 hPa | - | - | - | - |
| 1787965269 | 22.78° C | 53% | 1017.5 hPa | - | - | - | - |
| 1787964368 | 22.22° C | 54% | 1017.6 hPa | - | - | - | - |
| 1787963467 | 22.78° C | 53% | 1017.4 hPa | - | - | - | - |
| 1787962567 | 23.33° C | 52% | 1017.5 hPa | - | - | - | - |
| 1787961667 | 22.78° C | 52% | 1017.7 hPa | - | - | - | - |
| 1787960765 | 23.33° C | 49% | 1017.9 hPa | - | - | - | - |
| 1787959865 | 23.89° C | 46% | 1017.8 hPa | - | - | - | - |
| 1787958964 | 24.44° C | 44% | 1017.6 hPa | - | - | - | - |
| 1787958063 | 24.44° C | 45% | 1017.7 hPa | - | - | - | - |
| 1787957162 | 24.44° C | 44% | 1017.7 hPa | - | - | - | - |
| 1787956262 | 24.44° C | 43% | 1017.8 hPa | - | - | - | - |
| 1787955361 | 24.44° C | 43% | 1017.9 hPa | - | - | - | - |
| 1787954460 | 23.89° C | 44% | 1017.8 hPa | - | - | - | - |
| 1787953578 | 23.89° C | 43% | 1017.8 hPa | - | - | - | - |
| 1787952678 | 23.33° C | 44% | 1018 hPa | - | - | - | - |
| 1787951777 | 23.89° C | 44% | 1017.9 hPa | - | - | - | - |
| 1787950876 | 23.89° C | 43% | 1017.8 hPa | - | - | - | - |
| 1787949975 | 23.89° C | 41% | 1018 hPa | - | - | - | - |
| 1787949075 | 24.44° C | 40% | 1017.9 hPa | - | - | - | - |
| 1787948174 | 24.44° C | 40% | 1017.7 hPa | - | - | - | - |
* Rain since midnight (hover to see other rain measurements)
** Current wind speed in m/s (hover to see current wind gust speed)